^^
Saratoga-Weather Station Historical Data
Daily Summary for September 5, 2021 Units:  Both    English   Metric
Daily Weekly Monthly Yearly Custom
  High: Low: Average:
Temperature: 73 °F /  22.8 °C 58.8 °F /  14.9 °C 63.1 °F /  17.3 °C
Dew Point: 64.6 °F /  18.1 °C 56.8 °F /  13.8 °C 59.7 °F /  15.4 °C
Humidity: 96% 72% 89%
Wind Speed: 8.9mph /  14.3km/h - 0.6mph /  1km/h
Wind Gust: 12mph /  19.3km/h - -
Wind- - South
Pressure: 29.9 in /  1011.5 hPa 29.7 in /  1005.8 hPa -
Precipitation: 0.28 in /  7.1 mm    
Historical Graphs
 
 
Tabular Data for September 5, 2021
Time Temperature Dew Point Pressure Wind Wind Speed Wind Gust Humidity Rainfall Rate (Hourly) solar
00:03 60.1 °F /  15.6 °C 57.2 °F /  14 °C 29.9in /  1011.2hPa Calm     90% 0in /  0.0mm 0 W/m2
00:09 60.1 °F /  15.6 °C 57.2 °F /  14 °C 29.9in /  1011.2hPa Calm     90% 0in /  0.0mm 0 W/m2
00:14 60.1 °F /  15.6 °C 57.2 °F /  14 °C 29.9in /  1011.2hPa Calm     90% 0in /  0.0mm 0 W/m2
00:19 60.1 °F /  15.6 °C 57.2 °F /  14 °C 29.9in /  1011.2hPa Calm     90% 0in /  0.0mm 0 W/m2
00:24 59.9 °F /  15.5 °C 57 °F /  13.9 °C 29.9in /  1011.2hPa Calm     90% 0in /  0.0mm 0 W/m2
00:29 59.7 °F /  15.4 °C 56.8 °F /  13.8 °C 29.9in /  1011.5hPa Calm     90% 0in /  0.0mm 0 W/m2
00:34 59.7 °F /  15.4 °C 56.8 °F /  13.8 °C 29.9in /  1011.2hPa Calm     90% 0in /  0.0mm 0 W/m2
00:39 59.7 °F /  15.4 °C 56.8 °F /  13.8 °C 29.9in /  1011.5hPa Calm     90% 0in /  0.0mm 0 W/m2
00:44 59.7 °F /  15.4 °C 57 °F /  13.9 °C 29.9in /  1011.5hPa Calm     91% 0in /  0.0mm 0 W/m2
00:49 59.7 °F /  15.4 °C 57 °F /  13.9 °C 29.9in /  1011.5hPa Calm   1mph /  1.6km/h 91% 0in /  0.0mm 0 W/m2
00:54 59.7 °F /  15.4 °C 57 °F /  13.9 °C 29.9in /  1011.5hPa Calm     91% 0in /  0.0mm 0 W/m2
00:59 59.9 °F /  15.5 °C 57.2 °F /  14 °C 29.9in /  1011.2hPa Calm     91% 0in /  0.0mm 0 W/m2
01:04 60.3 °F /  15.7 °C 57.6 °F /  14.2 °C 29.9in /  1011.2hPa Calm     91% 0in /  0.0mm 0 W/m2
01:09 60.4 °F /  15.8 °C 57.6 °F /  14.2 °C 29.9in /  1011.2hPa Calm   1mph /  1.6km/h 90% 0in /  0.0mm 0 W/m2
01:14 60.8 °F /  16 °C 57.6 °F /  14.2 °C 29.9in /  1011.2hPa Calm   1mph /  1.6km/h 89% 0in /  0.0mm 0 W/m2
01:19 61.2 °F /  16.2 °C 57.6 °F /  14.2 °C 29.9in /  1011.2hPa Calm   1mph /  1.6km/h 88% 0in /  0.0mm 0 W/m2
01:24 61.3 °F /  16.3 °C 57.7 °F /  14.3 °C 29.9in /  1011.2hPa West 2mph /  3.2km/h 2mph /  3.2km/h 88% 0in /  0.0mm 0 W/m2
01:29 61.7 °F /  16.5 °C 57.7 °F /  14.3 °C 29.9in /  1011.2hPa WSW 0.9mph /  1.4km/h 3mph /  4.8km/h 87% 0in /  0.0mm 0 W/m2
01:34 61.9 °F /  16.6 °C 57.6 °F /  14.2 °C 29.9in /  1011.2hPa Calm   3mph /  4.8km/h 86% 0in /  0.0mm 0 W/m2
01:39 62.1 °F /  16.7 °C 57.7 °F /  14.3 °C 29.9in /  1011.2hPa Calm     86% 0in /  0.0mm 0 W/m2
01:44 62.1 °F /  16.7 °C 57.7 °F /  14.3 °C 29.9in /  1011.2hPa Calm   3mph /  4.8km/h 86% 0in /  0.0mm 0 W/m2
01:49 61.9 °F /  16.6 °C 57.6 °F /  14.2 °C 29.9in /  1011.2hPa Calm     86% 0in /  0.0mm 0 W/m2
01:54 61.9 °F /  16.6 °C 57.9 °F /  14.4 °C 29.9in /  1010.8hPa Calm     87% 0in /  0.0mm 0 W/m2
02:11 61.3 °F /  16.3 °C 57.7 °F /  14.3 °C 29.9in /  1010.8hPa Calm     88% 0in /  0.0mm 0 W/m2
02:16 61.3 °F /  16.3 °C 57.7 °F /  14.3 °C 29.9in /  1010.8hPa Calm     88% 0in /  0.0mm 0 W/m2
02:21 61.2 °F /  16.2 °C 57.9 °F /  14.4 °C 29.9in /  1010.8hPa Calm     89% 0in /  0.0mm 0 W/m2
02:26 61 °F /  16.1 °C 57.7 °F /  14.3 °C 29.9in /  1010.8hPa Calm     89% 0in /  0.0mm 0 W/m2
02:31 61 °F /  16.1 °C 57.7 °F /  14.3 °C 29.9in /  1010.8hPa Calm     89% 0in /  0.0mm 0 W/m2
02:36 60.6 °F /  15.9 °C 57.7 °F /  14.3 °C 29.9in /  1010.8hPa Calm     90% 0in /  0.0mm 0 W/m2
02:41 60.6 °F /  15.9 °C 57.7 °F /  14.3 °C 29.9in /  1010.8hPa Calm     90% 0in /  0.0mm 0 W/m2
02:46 60.4 °F /  15.8 °C 57.6 °F /  14.2 °C 29.9in /  1010.8hPa Calm     90% 0in /  0.0mm 0 W/m2
02:51 60.3 °F /  15.7 °C 57.4 °F /  14.1 °C 29.8in /  1010.5hPa Calm     90% 0in /  0.0mm 0 W/m2
02:56 60.3 °F /  15.7 °C 57.4 °F /  14.1 °C 29.9in /  1010.8hPa Calm     90% 0in /  0.0mm 0 W/m2
03:01 60.3 °F /  15.7 °C 57.6 °F /  14.2 °C 29.8in /  1010.5hPa Calm     91% 0in /  0.0mm 0 W/m2
03:06 60.1 °F /  15.6 °C 57.4 °F /  14.1 °C 29.9in /  1010.8hPa Calm     91% 0in /  0.0mm 0 W/m2
03:11 60.1 °F /  15.6 °C 57.4 °F /  14.1 °C 29.8in /  1010.5hPa Calm     91% 0in /  0.0mm 0 W/m2
03:16 60.1 °F /  15.6 °C 57.4 °F /  14.1 °C 29.8in /  1010.5hPa Calm     91% 0in /  0.0mm 0 W/m2
03:21 60.1 °F /  15.6 °C 57.4 °F /  14.1 °C 29.8in /  1010.5hPa Calm   1mph /  1.6km/h 91% 0in /  0.0mm 0 W/m2
03:42 60.3 °F /  15.7 °C 57.9 °F /  14.4 °C 29.8in /  1010.2hPa Calm     92% 0in /  0.0mm 0 W/m2
03:47 60.3 °F /  15.7 °C 57.9 °F /  14.4 °C 29.8in /  1010.2hPa Calm   1mph /  1.6km/h 92% 0in /  0.0mm 0 W/m2
03:52 60.3 °F /  15.7 °C 57.9 °F /  14.4 °C 29.8in /  1010.2hPa Calm     92% 0in /  0.0mm 0 W/m2
03:57 60.3 °F /  15.7 °C 57.6 °F /  14.2 °C 29.8in /  1010.2hPa Calm     91% 0in /  0.0mm 0 W/m2
04:02 60.3 °F /  15.7 °C 57.6 °F /  14.2 °C 29.8in /  1010.2hPa Calm     91% 0in /  0.0mm 0 W/m2
04:07 60.3 °F /  15.7 °C 57.6 °F /  14.2 °C 29.8in /  1010.2hPa Calm     91% 0in /  0.0mm 0 W/m2
04:12 60.1 °F /  15.6 °C 57.7 °F /  14.3 °C 29.8in /  1010.2hPa Calm   1mph /  1.6km/h 92% 0in /  0.0mm 0 W/m2
04:17 59.9 °F /  15.5 °C 57.6 °F /  14.2 °C 29.8in /  1010.2hPa Calm   1mph /  1.6km/h 92% 0in /  0.0mm 0 W/m2
04:22 59.7 °F /  15.4 °C 57.4 °F /  14.1 °C 29.8in /  1010.2hPa West 0.9mph /  1.4km/h 1mph /  1.6km/h 92% 0in /  0.0mm 0 W/m2
04:27 59.7 °F /  15.4 °C 57.4 °F /  14.1 °C 29.8in /  1010.2hPa Calm     92% 0in /  0.0mm 0 W/m2
04:32 59.7 °F /  15.4 °C 57.4 °F /  14.1 °C 29.8in /  1010.2hPa Calm     92% 0in /  0.0mm 0 W/m2
04:37 59.5 °F /  15.3 °C 57.2 °F /  14 °C 29.8in /  1010.2hPa Calm     92% 0in /  0.0mm 0 W/m2
04:42 59.5 °F /  15.3 °C 57.2 °F /  14 °C 29.8in /  1010.2hPa Calm     92% 0in /  0.0mm 0 W/m2
04:47 59.5 °F /  15.3 °C 57.2 °F /  14 °C 29.8in /  1010.2hPa Calm     92% 0in /  0.0mm 0 W/m2
04:52 59.4 °F /  15.2 °C 57.4 °F /  14.1 °C 29.8in /  1010.2hPa Calm     93% 0in /  0.0mm 0 W/m2
04:57 59.4 °F /  15.2 °C 57.4 °F /  14.1 °C 29.8in /  1010.2hPa Calm     93% 0in /  0.0mm 0 W/m2
05:02 59.4 °F /  15.2 °C 57.4 °F /  14.1 °C 29.8in /  1010.2hPa Calm     93% 0in /  0.0mm 0 W/m2
05:07 59.4 °F /  15.2 °C 57.4 °F /  14.1 °C 29.8in /  1010.2hPa Calm     93% 0in /  0.0mm 0 W/m2
05:12 59.4 °F /  15.2 °C 57.4 °F /  14.1 °C 29.8in /  1010.2hPa Calm     93% 0in /  0.0mm 0 W/m2
05:17 59.2 °F /  15.1 °C 57.2 °F /  14 °C 29.8in /  1009.8hPa Calm     93% 0in /  0.0mm 0 W/m2
05:22 59.2 °F /  15.1 °C 57.2 °F /  14 °C 29.8in /  1009.8hPa Calm   1mph /  1.6km/h 93% 0in /  0.0mm 0 W/m2
05:27 59.2 °F /  15.1 °C 57.2 °F /  14 °C 29.8in /  1009.8hPa Calm     93% 0in /  0.0mm 0 W/m2
05:32 59.2 °F /  15.1 °C 57.2 °F /  14 °C 29.8in /  1009.8hPa Calm   1mph /  1.6km/h 93% 0in /  0.0mm 0 W/m2
05:37 59.2 °F /  15.1 °C 57.2 °F /  14 °C 29.8in /  1009.8hPa Calm   1mph /  1.6km/h 93% 0in /  0.0mm 0 W/m2
05:43 59.2 °F /  15.1 °C 57.2 °F /  14 °C 29.8in /  1009.8hPa Calm   1mph /  1.6km/h 93% 0in /  0.0mm 0 W/m2
05:48 59.2 °F /  15.1 °C 57.4 °F /  14.1 °C 29.8in /  1009.8hPa Calm     94% 0in /  0.0mm 0 W/m2
05:53 59.2 °F /  15.1 °C 57.4 °F /  14.1 °C 29.8in /  1009.8hPa Calm     94% 0in /  0.0mm 0 W/m2
05:58 59.2 °F /  15.1 °C 57.4 °F /  14.1 °C 29.8in /  1009.8hPa Calm     94% 0in /  0.0mm 0 W/m2
06:03 59 °F /  15 °C 57.2 °F /  14 °C 29.8in /  1009.8hPa Calm     94% 0in /  0.0mm 0 W/m2
06:08 59 °F /  15 °C 57.2 °F /  14 °C 29.8in /  1009.8hPa Calm     94% 0in /  0.0mm 0 W/m2
06:13 58.8 °F /  14.9 °C 57 °F /  13.9 °C 29.8in /  1009.8hPa Calm     94% 0in /  0.0mm 0 W/m2
06:18 58.8 °F /  14.9 °C 57 °F /  13.9 °C 29.8in /  1009.8hPa Calm     94% 0in /  0.0mm 0 W/m2
06:23 58.8 °F /  14.9 °C 57 °F /  13.9 °C 29.8in /  1009.8hPa Calm     94% 0in /  0.0mm 5 W/m2
06:28 58.8 °F /  14.9 °C 57 °F /  13.9 °C 29.8in /  1009.8hPa Calm     94% 0in /  0.0mm 9 W/m2
06:33 58.8 °F /  14.9 °C 57 °F /  13.9 °C 29.8in /  1009.8hPa Calm     94% 0in /  0.0mm 16 W/m2
06:38 58.8 °F /  14.9 °C 57.4 °F /  14.1 °C 29.8in /  1009.8hPa Calm     95% 0in /  0.0mm 18 W/m2
06:43 58.8 °F /  14.9 °C 57.4 °F /  14.1 °C 29.8in /  1009.8hPa Calm     95% 0in /  0.0mm 14 W/m2
06:48 59 °F /  15 °C 57.6 °F /  14.2 °C 29.8in /  1009.8hPa Calm     95% 0in /  0.0mm 12 W/m2
06:53 59 °F /  15 °C 57.6 °F /  14.2 °C 29.8in /  1009.8hPa Calm     95% 0in /  0.0mm 9 W/m2
06:58 59 °F /  15 °C 57.6 °F /  14.2 °C 29.8in /  1009.8hPa West 0.9mph /  1.4km/h 1mph /  1.6km/h 95% 0in /  0.0mm 5 W/m2
07:03 59 °F /  15 °C 57.6 °F /  14.2 °C 29.8in /  1009.5hPa Calm     95% 0.02in /  0.5mm 5 W/m2
07:08 59 °F /  15 °C 57.6 °F /  14.2 °C 29.8in /  1009.5hPa Calm     95% 0.02in /  0.5mm 0 W/m2
07:13 59 °F /  15 °C 57.6 °F /  14.2 °C 29.8in /  1009.5hPa Calm     95% 0.03in /  0.8mm 5 W/m2
07:18 59 °F /  15 °C 57.6 °F /  14.2 °C 29.8in /  1009.5hPa Calm     95% 0.03in /  0.8mm 7 W/m2
07:23 59.2 °F /  15.1 °C 57.7 °F /  14.3 °C 29.8in /  1009.5hPa Calm     95% 0.03in /  0.8mm 9 W/m2
07:28 59.2 °F /  15.1 °C 57.7 °F /  14.3 °C 29.8in /  1009.5hPa Calm     95% 0.03in /  0.8mm 11 W/m2
07:33 59.2 °F /  15.1 °C 57.7 °F /  14.3 °C 29.8in /  1009.5hPa Calm     95% 0.03in /  0.8mm 12 W/m2
07:38 59.2 °F /  15.1 °C 57.7 °F /  14.3 °C 29.8in /  1009.5hPa Calm   1mph /  1.6km/h 95% 0.03in /  0.8mm 16 W/m2
07:43 59.2 °F /  15.1 °C 57.7 °F /  14.3 °C 29.8in /  1009.5hPa NNW 0.9mph /  1.4km/h 1mph /  1.6km/h 95% 0.03in /  0.8mm 18 W/m2
08:00 59.4 °F /  15.2 °C 57.9 °F /  14.4 °C 29.8in /  1009.5hPa Calm     95% 0.02in /  0.5mm 39 W/m2
08:05 59.4 °F /  15.2 °C 57.9 °F /  14.4 °C 29.8in /  1009.1hPa East 0.9mph /  1.4km/h 2mph /  3.2km/h 95% 0.01in /  0.2mm 53 W/m2
08:10 59.5 °F /  15.3 °C 58.1 °F /  14.5 °C 29.8in /  1009.1hPa Calm   1mph /  1.6km/h 95% 0in /  0.0mm 70 W/m2
08:15 59.5 °F /  15.3 °C 58.1 °F /  14.5 °C 29.8in /  1009.5hPa Calm   2mph /  3.2km/h 95% 0in /  0.0mm 83 W/m2
08:20 59.5 °F /  15.3 °C 58.1 °F /  14.5 °C 29.8in /  1009.5hPa Calm   2mph /  3.2km/h 95% 0in /  0.0mm 90 W/m2
08:25 59.7 °F /  15.4 °C 58.6 °F /  14.8 °C 29.8in /  1009.5hPa East 2mph /  3.2km/h 2mph /  3.2km/h 96% 0in /  0.0mm 90 W/m2
08:30 59.7 °F /  15.4 °C 58.6 °F /  14.8 °C 29.8in /  1009.5hPa Calm   2mph /  3.2km/h 96% 0in /  0.0mm 84 W/m2
08:35 59.7 °F /  15.4 °C 58.6 °F /  14.8 °C 29.8in /  1009.5hPa ENE 2mph /  3.2km/h 2mph /  3.2km/h 96% 0in /  0.0mm 91 W/m2
08:55 60.1 °F /  15.6 °C 58.6 °F /  14.8 °C 29.8in /  1009.5hPa ENE 0.9mph /  1.4km/h 1mph /  1.6km/h 95% 0.01in /  0.2mm 84 W/m2
09:00 60.3 °F /  15.7 °C 58.8 °F /  14.9 °C 29.8in /  1009.5hPa ENE 0.9mph /  1.4km/h 2mph /  3.2km/h 95% 0.02in /  0.5mm 90 W/m2
09:05 60.3 °F /  15.7 °C 58.8 °F /  14.9 °C 29.8in /  1009.5hPa Calm   1mph /  1.6km/h 95% 0.03in /  0.8mm 91 W/m2
09:10 60.3 °F /  15.7 °C 58.8 °F /  14.9 °C 29.8in /  1009.5hPa Calm   2mph /  3.2km/h 95% 0.03in /  0.8mm 90 W/m2
09:15 60.4 °F /  15.8 °C 59 °F /  15 °C 29.8in /  1009.5hPa ENE 0.9mph /  1.4km/h 1mph /  1.6km/h 95% 0.03in /  0.8mm 79 W/m2
09:20 60.4 °F /  15.8 °C 59 °F /  15 °C 29.8in /  1009.5hPa Calm   2mph /  3.2km/h 95% 0.06in /  1.5mm 56 W/m2
09:25 60.4 °F /  15.8 °C 59 °F /  15 °C 29.8in /  1009.5hPa Calm   1mph /  1.6km/h 95% 0.09in /  2.3mm 62 W/m2
09:30 60.4 °F /  15.8 °C 59 °F /  15 °C 29.8in /  1009.5hPa Calm     95% 0.1in /  2.5mm 81 W/m2
09:35 60.4 °F /  15.8 °C 59 °F /  15 °C 29.8in /  1009.5hPa Calm     95% 0.1in /  2.5mm 67 W/m2
09:54 60.6 °F /  15.9 °C 59.2 °F /  15.1 °C 29.8in /  1009.5hPa Calm     95% 0.1in /  2.5mm 121 W/m2
09:59 60.8 °F /  16 °C 59.4 °F /  15.2 °C 29.8in /  1009.5hPa ENE 0.9mph /  1.4km/h 2mph /  3.2km/h 95% 0.09in /  2.3mm 139 W/m2
10:04 61 °F /  16.1 °C 59.5 °F /  15.3 °C 29.8in /  1009.5hPa Calm     95% 0.09in /  2.3mm 139 W/m2
10:10 61.2 °F /  16.2 °C 60.1 °F /  15.6 °C 29.8in /  1009.1hPa ENE 0.9mph /  1.4km/h 2mph /  3.2km/h 96% 0.09in /  2.3mm 160 W/m2
10:15 61.2 °F /  16.2 °C 60.1 °F /  15.6 °C 29.8in /  1009.1hPa ENE 0.9mph /  1.4km/h 2mph /  3.2km/h 96% 0.1in /  2.5mm 172 W/m2
10:20 61.3 °F /  16.3 °C 59.9 °F /  15.5 °C 29.8in /  1009.1hPa East 0.9mph /  1.4km/h 1mph /  1.6km/h 95% 0.07in /  1.8mm 144 W/m2
10:25 61.3 °F /  16.3 °C 59.9 °F /  15.5 °C 29.8in /  1009.1hPa NE 0.9mph /  1.4km/h 3mph /  4.8km/h 95% 0.04in /  1.0mm 167 W/m2
10:45 61.9 °F /  16.6 °C 60.4 °F /  15.8 °C 29.8in /  1009.1hPa ENE 2mph /  3.2km/h 2mph /  3.2km/h 95% 0.02in /  0.5mm 192 W/m2
10:50 62.1 °F /  16.7 °C 60.6 °F /  15.9 °C 29.8in /  1009.1hPa ENE 0.9mph /  1.4km/h 2mph /  3.2km/h 95% 0.02in /  0.5mm 260 W/m2
10:55 62.4 °F /  16.9 °C 60.6 °F /  15.9 °C 29.8in /  1009.1hPa East 2mph /  3.2km/h 3mph /  4.8km/h 94% 0.02in /  0.5mm 271 W/m2
11:00 62.8 °F /  17.1 °C 61 °F /  16.1 °C 29.8in /  1009.1hPa ENE 2mph /  3.2km/h 2mph /  3.2km/h 94% 0.02in /  0.5mm 320 W/m2
11:05 63.3 °F /  17.4 °C 61.5 °F /  16.4 °C 29.8in /  1009.1hPa ENE 0.9mph /  1.4km/h 2mph /  3.2km/h 94% 0.02in /  0.5mm 362 W/m2
11:10 63.9 °F /  17.7 °C 61.5 °F /  16.4 °C 29.8in /  1009.1hPa East 0.9mph /  1.4km/h 2mph /  3.2km/h 92% 0.01in /  0.2mm 237 W/m2
11:15 64.2 °F /  17.9 °C 61.5 °F /  16.4 °C 29.8in /  1008.8hPa ENE 0.9mph /  1.4km/h 3mph /  4.8km/h 91% 0in /  0.0mm 309 W/m2
11:20 64.8 °F /  18.2 °C 62.1 °F /  16.7 °C 29.8in /  1008.8hPa NW 2mph /  3.2km/h 2mph /  3.2km/h 91% 0in /  0.0mm 390 W/m2
11:25 65.5 °F /  18.6 °C 62.2 °F /  16.8 °C 29.8in /  1008.8hPa Calm   3mph /  4.8km/h 89% 0in /  0.0mm 359 W/m2
11:30 66 °F /  18.9 °C 63 °F /  17.2 °C 29.8in /  1008.8hPa ENE 2mph /  3.2km/h 4mph /  6.4km/h 90% 0in /  0.0mm 617 W/m2
11:35 66.6 °F /  19.2 °C 62.2 °F /  16.8 °C 29.8in /  1008.8hPa East 0.9mph /  1.4km/h 2mph /  3.2km/h 86% 0in /  0.0mm 260 W/m2
11:40 66.7 °F /  19.3 °C 62.4 °F /  16.9 °C 29.8in /  1008.8hPa Calm   1mph /  1.6km/h 86% 0in /  0.0mm 211 W/m2
11:45 66.6 °F /  19.2 °C 61.5 °F /  16.4 °C 29.8in /  1008.8hPa Calm   1mph /  1.6km/h 84% 0in /  0.0mm 178 W/m2
11:50 66.4 °F /  19.1 °C 61.3 °F /  16.3 °C 29.8in /  1008.8hPa Calm   1mph /  1.6km/h 84% 0in /  0.0mm 232 W/m2
12:07 67.3 °F /  19.6 °C 62.2 °F /  16.8 °C 29.8in /  1008.8hPa East 2.9mph /  4.7km/h 3mph /  4.8km/h 84% 0in /  0.0mm 587 W/m2
12:12 67.6 °F /  19.8 °C 62.2 °F /  16.8 °C 29.8in /  1008.8hPa SSW 0.9mph /  1.4km/h 3mph /  4.8km/h 83% 0in /  0.0mm 325 W/m2
12:17 67.8 °F /  19.9 °C 61.7 °F /  16.5 °C 29.8in /  1008.8hPa East 0.9mph /  1.4km/h 8mph /  12.9km/h 81% 0in /  0.0mm 392 W/m2
12:22 67.6 °F /  19.8 °C 61.9 °F /  16.6 °C 29.8in /  1008.5hPa Calm   2mph /  3.2km/h 82% 0in /  0.0mm 404 W/m2
12:27 67.8 °F /  19.9 °C 62.8 °F /  17.1 °C 29.8in /  1008.5hPa NNE 0.9mph /  1.4km/h 8mph /  12.9km/h 84% 0in /  0.0mm 320 W/m2
12:32 68.2 °F /  20.1 °C 62.8 °F /  17.1 °C 29.8in /  1008.5hPa ENE 0.9mph /  1.4km/h 5mph /  8km/h 83% 0in /  0.0mm 410 W/m2
12:37 68.2 °F /  20.1 °C 62.4 °F /  16.9 °C 29.8in /  1008.5hPa East 2.9mph /  4.7km/h 4mph /  6.4km/h 82% 0in /  0.0mm 629 W/m2
12:42 68.4 °F /  20.2 °C 63 °F /  17.2 °C 29.8in /  1008.5hPa SW 0.9mph /  1.4km/h 5mph /  8km/h 83% 0in /  0.0mm 214 W/m2
12:47 67.8 °F /  19.9 °C 61.3 °F /  16.3 °C 29.8in /  1008.5hPa Calm   1mph /  1.6km/h 80% 0in /  0.0mm 174 W/m2
12:52 67.6 °F /  19.8 °C 61.2 °F /  16.2 °C 29.8in /  1008.5hPa SE 0.9mph /  1.4km/h 1mph /  1.6km/h 80% 0in /  0.0mm 207 W/m2
12:57 67.6 °F /  19.8 °C 61.9 °F /  16.6 °C 29.8in /  1008.5hPa Calm   1mph /  1.6km/h 82% 0in /  0.0mm 287 W/m2
13:02 67.6 °F /  19.8 °C 62.2 °F /  16.8 °C 29.8in /  1008.5hPa WNW 2.9mph /  4.7km/h 4mph /  6.4km/h 83% 0in /  0.0mm 446 W/m2
13:07 67.6 °F /  19.8 °C 61.2 °F /  16.2 °C 29.8in /  1008.5hPa NW 0.9mph /  1.4km/h 2mph /  3.2km/h 80% 0in /  0.0mm 302 W/m2
13:12 67.8 °F /  19.9 °C 61 °F /  16.1 °C 29.8in /  1008.1hPa Calm   4mph /  6.4km/h 79% 0in /  0.0mm 369 W/m2
13:17 68.2 °F /  20.1 °C 61.3 °F /  16.3 °C 29.8in /  1008.1hPa NE 2mph /  3.2km/h 2mph /  3.2km/h 79% 0in /  0.0mm 207 W/m2
13:37 67.8 °F /  19.9 °C 61.7 °F /  16.5 °C 29.8in /  1008.1hPa WSW 4mph /  6.4km/h 4mph /  6.4km/h 81% 0in /  0.0mm 288 W/m2
13:42 68.2 °F /  20.1 °C 62.8 °F /  17.1 °C 29.8in /  1008.1hPa NW 0.9mph /  1.4km/h 2mph /  3.2km/h 83% 0in /  0.0mm 267 W/m2
13:47 68 °F /  20 °C 61.2 °F /  16.2 °C 29.8in /  1008.1hPa Calm   2mph /  3.2km/h 79% 0in /  0.0mm 302 W/m2
13:52 68.2 °F /  20.1 °C 61.3 °F /  16.3 °C 29.8in /  1008.1hPa South 0.9mph /  1.4km/h 3mph /  4.8km/h 79% 0in /  0.0mm 308 W/m2
13:57 68.4 °F /  20.2 °C 61.5 °F /  16.4 °C 29.8in /  1007.8hPa Calm   4mph /  6.4km/h 79% 0in /  0.0mm 352 W/m2
14:02 68.5 °F /  20.3 °C 61.3 °F /  16.3 °C 29.8in /  1007.8hPa NW 0.9mph /  1.4km/h 2mph /  3.2km/h 78% 0in /  0.0mm 795 W/m2
14:22 70.3 °F /  21.3 °C 62.4 °F /  16.9 °C 29.8in /  1007.8hPa NW 2mph /  3.2km/h 3mph /  4.8km/h 76% 0in /  0.0mm 524 W/m2
14:27 70.2 °F /  21.2 °C 62.6 °F /  17 °C 29.8in /  1007.8hPa NW 0.9mph /  1.4km/h 4mph /  6.4km/h 77% 0in /  0.0mm 900 W/m2
14:33 70.3 °F /  21.3 °C 62.4 °F /  16.9 °C 29.8in /  1007.5hPa WNW 2.9mph /  4.7km/h 4mph /  6.4km/h 76% 0in /  0.0mm 422 W/m2
14:49 70.9 °F /  21.6 °C 63 °F /  17.2 °C 29.8in /  1007.5hPa East 2.9mph /  4.7km/h 5mph /  8km/h 76% 0in /  0.0mm 773 W/m2
14:54 71.1 °F /  21.7 °C 62.8 °F /  17.1 °C 29.8in /  1007.5hPa WNW 6mph /  9.7km/h 6mph /  9.7km/h 75% 0in /  0.0mm 1030 W/m2
14:59 71.2 °F /  21.8 °C 62.6 °F /  17 °C 29.8in /  1007.5hPa WNW 0.9mph /  1.4km/h 6mph /  9.7km/h 74% 0in /  0.0mm 1041 W/m2
15:04 71.2 °F /  21.8 °C 61.7 °F /  16.5 °C 29.8in /  1007.5hPa Calm   5mph /  8km/h 72% 0in /  0.0mm 749 W/m2
15:09 71.1 °F /  21.7 °C 62.8 °F /  17.1 °C 29.8in /  1007.5hPa SW 2mph /  3.2km/h 5mph /  8km/h 75% 0in /  0.0mm 626 W/m2
15:14 70.5 °F /  21.4 °C 61.9 °F /  16.6 °C 29.7in /  1007.1hPa West 2.9mph /  4.7km/h 8mph /  12.9km/h 74% 0in /  0.0mm 533 W/m2
15:19 70.3 °F /  21.3 °C 62.4 °F /  16.9 °C 29.7in /  1007.1hPa East 0.9mph /  1.4km/h 4mph /  6.4km/h 76% 0in /  0.0mm 696 W/m2
15:24 71.1 °F /  21.7 °C 63.5 °F /  17.5 °C 29.7in /  1007.1hPa SE 0.9mph /  1.4km/h 3mph /  4.8km/h 77% 0in /  0.0mm 1144 W/m2
15:29 71.4 °F /  21.9 °C 63.5 °F /  17.5 °C 29.7in /  1007.1hPa Calm   7mph /  11.3km/h 76% 0in /  0.0mm 712 W/m2
15:34 71.4 °F /  21.9 °C 62.8 °F /  17.1 °C 29.7in /  1007.1hPa West 6.9mph /  11.1km/h 7mph /  11.3km/h 74% 0in /  0.0mm 383 W/m2
15:39 71.1 °F /  21.7 °C 62.4 °F /  16.9 °C 29.7in /  1007.1hPa Calm   7mph /  11.3km/h 74% 0in /  0.0mm 439 W/m2
15:44 71.2 °F /  21.8 °C 63.3 °F /  17.4 °C 29.7in /  1006.8hPa NW 0.9mph /  1.4km/h 3mph /  4.8km/h 76% 0in /  0.0mm 439 W/m2
15:49 71.4 °F /  21.9 °C 62.2 °F /  16.8 °C 29.7in /  1007.1hPa West 8.9mph /  14.3km/h 12mph /  19.3km/h 73% 0in /  0.0mm 388 W/m2
15:54 71.4 °F /  21.9 °C 62.2 °F /  16.8 °C 29.7in /  1007.1hPa SSE 2mph /  3.2km/h 3mph /  4.8km/h 73% 0in /  0.0mm 388 W/m2
15:59 71.8 °F /  22.1 °C 63 °F /  17.2 °C 29.7in /  1006.8hPa WSW 2mph /  3.2km/h 12mph /  19.3km/h 74% 0in /  0.0mm 431 W/m2
16:20 70.9 °F /  21.6 °C 63 °F /  17.2 °C 29.7in /  1006.8hPa NNW 0.9mph /  1.4km/h 4mph /  6.4km/h 76% 0in /  0.0mm 239 W/m2
16:25 70.3 °F /  21.3 °C 62.4 °F /  16.9 °C 29.7in /  1006.8hPa East 0.9mph /  1.4km/h 6mph /  9.7km/h 76% 0in /  0.0mm 239 W/m2
16:30 70.3 °F /  21.3 °C 62.4 °F /  16.9 °C 29.7in /  1006.8hPa East 0.9mph /  1.4km/h 2mph /  3.2km/h 76% 0in /  0.0mm 292 W/m2
16:35 70.3 °F /  21.3 °C 62.4 °F /  16.9 °C 29.7in /  1006.8hPa Calm   5mph /  8km/h 76% 0in /  0.0mm 274 W/m2
16:40 70.7 °F /  21.5 °C 62.8 °F /  17.1 °C 29.7in /  1006.8hPa SW 2mph /  3.2km/h 2mph /  3.2km/h 76% 0in /  0.0mm 283 W/m2
16:57 72.7 °F /  22.6 °C 63.9 °F /  17.7 °C 29.7in /  1006.4hPa West 2.9mph /  4.7km/h 7mph /  11.3km/h 74% 0in /  0.0mm 842 W/m2
17:02 73 °F /  22.8 °C 64.6 °F /  18.1 °C 29.7in /  1006.1hPa East 6mph /  9.7km/h 7mph /  11.3km/h 75% 0in /  0.0mm 853 W/m2
17:07 73 °F /  22.8 °C 64.6 °F /  18.1 °C 29.7in /  1006.1hPa ENE 0.9mph /  1.4km/h 2mph /  3.2km/h 75% 0in /  0.0mm 250 W/m2
17:12 72.7 °F /  22.6 °C 64.2 °F /  17.9 °C 29.7in /  1006.1hPa WSW 2mph /  3.2km/h 4mph /  6.4km/h 75% 0in /  0.0mm 816 W/m2
17:17 72 °F /  22.2 °C 64 °F /  17.8 °C 29.7in /  1006.4hPa NE 0.9mph /  1.4km/h 3mph /  4.8km/h 76% 0in /  0.0mm 62 W/m2
17:22 71.2 °F /  21.8 °C 63.3 °F /  17.4 °C 29.7in /  1006.4hPa Calm   7mph /  11.3km/h 76% 0in /  0.0mm 77 W/m2
17:27 70.7 °F /  21.5 °C 63.5 °F /  17.5 °C 29.7in /  1006.4hPa WNW 0.9mph /  1.4km/h 2mph /  3.2km/h 78% 0in /  0.0mm 62 W/m2
17:33 70.3 °F /  21.3 °C 63.1 °F /  17.3 °C 29.7in /  1006.4hPa WNW 0.9mph /  1.4km/h 3mph /  4.8km/h 78% 0in /  0.0mm 67 W/m2
17:38 70 °F /  21.1 °C 63.1 °F /  17.3 °C 29.7in /  1006.1hPa West 0.9mph /  1.4km/h 3mph /  4.8km/h 79% 0in /  0.0mm 83 W/m2
17:54 68.2 °F /  20.1 °C 63.1 °F /  17.3 °C 29.7in /  1006.4hPa West 2.9mph /  4.7km/h 4mph /  6.4km/h 84% 0.08in /  2.0mm 109 W/m2
17:59 66.9 °F /  19.4 °C 63 °F /  17.2 °C 29.7in /  1006.4hPa WNW 2mph /  3.2km/h 5mph /  8km/h 87% 0.09in /  2.3mm 309 W/m2
18:04 66.6 °F /  19.2 °C 63.1 °F /  17.3 °C 29.7in /  1006.4hPa Calm   1mph /  1.6km/h 89% 0.1in /  2.5mm 171 W/m2
18:09 66.6 °F /  19.2 °C 63.5 °F /  17.5 °C 29.7in /  1006.4hPa Calm   2mph /  3.2km/h 90% 0.11in /  2.8mm 118 W/m2
18:26 64.9 °F /  18.3 °C 62.2 °F /  16.8 °C 29.7in /  1006.1hPa Calm   2mph /  3.2km/h 91% 0.11in /  2.8mm 176 W/m2
18:31 65.1 °F /  18.4 °C 62.4 °F /  16.9 °C 29.7in /  1006.1hPa Calm   4mph /  6.4km/h 91% 0.11in /  2.8mm 169 W/m2
18:36 65.5 °F /  18.6 °C 63.3 °F /  17.4 °C 29.7in /  1006.1hPa Calm     93% 0.11in /  2.8mm 109 W/m2
18:41 65.5 °F /  18.6 °C 63.3 °F /  17.4 °C 29.7in /  1006.1hPa Calm   4mph /  6.4km/h 93% 0.11in /  2.8mm 137 W/m2
18:46 65.7 °F /  18.7 °C 63.5 °F /  17.5 °C 29.7in /  1006.1hPa SW 0.9mph /  1.4km/h 1mph /  1.6km/h 93% 0.11in /  2.8mm 113 W/m2
18:51 65.7 °F /  18.7 °C 63.3 °F /  17.4 °C 29.7in /  1006.1hPa NNE 0.9mph /  1.4km/h 3mph /  4.8km/h 92% 0.05in /  1.3mm 118 W/m2
18:56 65.7 °F /  18.7 °C 63.3 °F /  17.4 °C 29.7in /  1006.1hPa Calm   1mph /  1.6km/h 92% 0.02in /  0.5mm 76 W/m2
19:01 65.7 °F /  18.7 °C 63.3 °F /  17.4 °C 29.7in /  1006.1hPa Calm   3mph /  4.8km/h 92% 0.02in /  0.5mm 37 W/m2
19:06 65.7 °F /  18.7 °C 63.3 °F /  17.4 °C 29.7in /  1006.1hPa Calm     92% 0in /  0.0mm 21 W/m2
19:11 65.5 °F /  18.6 °C 63.1 °F /  17.3 °C 29.7in /  1006.1hPa Calm     92% 0in /  0.0mm 18 W/m2
19:16 65.1 °F /  18.4 °C 62.4 °F /  16.9 °C 29.7in /  1006.4hPa West 6mph /  9.7km/h 8mph /  12.9km/h 91% 0.07in /  1.8mm 30 W/m2
19:34 64.9 °F /  18.3 °C 63.1 °F /  17.3 °C 29.7in /  1006.1hPa Calm   1mph /  1.6km/h 94% 0.13in /  3.3mm 195 W/m2
19:39 65.5 °F /  18.6 °C 63.7 °F /  17.6 °C 29.7in /  1006.4hPa Calm     94% 0.13in /  3.3mm 188 W/m2
19:44 65.7 °F /  18.7 °C 63.9 °F /  17.7 °C 29.7in /  1006.1hPa Calm   1mph /  1.6km/h 94% 0.13in /  3.3mm 190 W/m2
19:49 65.8 °F /  18.8 °C 64 °F /  17.8 °C 29.7in /  1006.1hPa Calm     94% 0.13in /  3.3mm 169 W/m2
19:54 65.8 °F /  18.8 °C 64 °F /  17.8 °C 29.7in /  1006.1hPa Calm     94% 0.13in /  3.3mm 148 W/m2
19:59 66 °F /  18.9 °C 63.9 °F /  17.7 °C 29.7in /  1006.1hPa Calm     93% 0.13in /  3.3mm 121 W/m2
20:16 65.5 °F /  18.6 °C 63.3 °F /  17.4 °C 29.7in /  1006.1hPa Calm     93% 0.02in /  0.5mm 23 W/m2
20:21 65.1 °F /  18.4 °C 63 °F /  17.2 °C 29.7in /  1006.1hPa SW 1mph /  1.6km/h 1mph /  1.6km/h 93% 0in /  0.0mm 21 W/m2
20:26 64.8 °F /  18.2 °C 62.6 °F /  17 °C 29.7in /  1006.1hPa Calm     93% 0in /  0.0mm 21 W/m2
20:31 64.6 °F /  18.1 °C 62.4 °F /  16.9 °C 29.7in /  1006.1hPa Calm     93% 0in /  0.0mm 16 W/m2
20:36 64.2 °F /  17.9 °C 62.2 °F /  16.8 °C 29.7in /  1006.1hPa Calm     93% 0in /  0.0mm 14 W/m2
20:41 64 °F /  17.8 °C 62.2 °F /  16.8 °C 29.7in /  1006.1hPa Calm     94% 0in /  0.0mm 12 W/m2
21:00 63.1 °F /  17.3 °C 61.3 °F /  16.3 °C 29.7in /  1006.1hPa SE 2mph /  3.2km/h 3mph /  4.8km/h 94% 0in /  0.0mm 5 W/m2
21:05 63 °F /  17.2 °C 61.2 °F /  16.2 °C 29.7in /  1005.8hPa SE 2mph /  3.2km/h 2mph /  3.2km/h 94% 0in /  0.0mm 0 W/m2
21:10 62.4 °F /  16.9 °C 60.6 °F /  15.9 °C 29.7in /  1006.1hPa SW 0.9mph /  1.4km/h 3mph /  4.8km/h 94% 0in /  0.0mm 0 W/m2
21:15 62.2 °F /  16.8 °C 60.4 °F /  15.8 °C 29.7in /  1006.1hPa SW 2mph /  3.2km/h 2mph /  3.2km/h 94% 0in /  0.0mm 0 W/m2
21:20 61.9 °F /  16.6 °C 60.1 °F /  15.6 °C 29.7in /  1006.1hPa SW 0.9mph /  1.4km/h 1mph /  1.6km/h 94% 0in /  0.0mm 0 W/m2
21:25 61.5 °F /  16.4 °C 59.7 °F /  15.4 °C 29.7in /  1006.1hPa Calm   1mph /  1.6km/h 94% 0in /  0.0mm 0 W/m2
21:30 61.3 °F /  16.3 °C 59.5 °F /  15.3 °C 29.7in /  1006.1hPa Calm   1mph /  1.6km/h 94% 0in /  0.0mm 0 W/m2
21:35 61.2 °F /  16.2 °C 59.4 °F /  15.2 °C 29.7in /  1006.1hPa Calm     94% 0in /  0.0mm 0 W/m2
21:40 61 °F /  16.1 °C 59.2 °F /  15.1 °C 29.7in /  1006.1hPa WSW 0.9mph /  1.4km/h 1mph /  1.6km/h 94% 0in /  0.0mm 0 W/m2
21:45 60.8 °F /  16 °C 59 °F /  15 °C 29.7in /  1006.1hPa WSW 0.9mph /  1.4km/h 1mph /  1.6km/h 94% 0in /  0.0mm 0 W/m2
21:50 60.8 °F /  16 °C 59 °F /  15 °C 29.7in /  1006.1hPa WSW 0.9mph /  1.4km/h 2mph /  3.2km/h 94% 0in /  0.0mm 0 W/m2
22:11 60.4 °F /  15.8 °C 59 °F /  15 °C 29.7in /  1006.4hPa Calm     95% 0in /  0.0mm 0 W/m2
22:16 60.4 °F /  15.8 °C 59 °F /  15 °C 29.7in /  1006.4hPa Calm     95% 0in /  0.0mm 0 W/m2
22:21 60.3 °F /  15.7 °C 58.8 °F /  14.9 °C 29.7in /  1006.4hPa Calm     95% 0in /  0.0mm 0 W/m2
22:26 60.3 °F /  15.7 °C 58.8 °F /  14.9 °C 29.7in /  1006.4hPa Calm   1mph /  1.6km/h 95% 0in /  0.0mm 0 W/m2
22:31 60.1 °F /  15.6 °C 58.6 °F /  14.8 °C 29.7in /  1006.4hPa Calm     95% 0in /  0.0mm 0 W/m2
22:36 59.9 °F /  15.5 °C 58.5 °F /  14.7 °C 29.7in /  1006.4hPa Calm   1mph /  1.6km/h 95% 0in /  0.0mm 0 W/m2
22:41 59.7 °F /  15.4 °C 58.3 °F /  14.6 °C 29.7in /  1006.4hPa Calm     95% 0in /  0.0mm 0 W/m2
22:46 59.5 °F /  15.3 °C 58.1 °F /  14.5 °C 29.7in /  1006.4hPa Calm     95% 0in /  0.0mm 0 W/m2
22:51 59.4 °F /  15.2 °C 57.9 °F /  14.4 °C 29.7in /  1006.4hPa Calm   1mph /  1.6km/h 95% 0in /  0.0mm 0 W/m2
22:56 59.4 °F /  15.2 °C 57.9 °F /  14.4 °C 29.7in /  1006.1hPa Calm   1mph /  1.6km/h 95% 0in /  0.0mm 0 W/m2
23:01 59.2 °F /  15.1 °C 57.7 °F /  14.3 °C 29.7in /  1006.1hPa Calm     95% 0in /  0.0mm 0 W/m2
23:06 59.2 °F /  15.1 °C 57.7 °F /  14.3 °C 29.7in /  1006.1hPa Calm     95% 0in /  0.0mm 0 W/m2
23:11 59 °F /  15 °C 57.6 °F /  14.2 °C 29.7in /  1006.1hPa Calm   1mph /  1.6km/h 95% 0in /  0.0mm 0 W/m2
23:16 58.8 °F /  14.9 °C 57.4 °F /  14.1 °C 29.7in /  1006.1hPa Calm     95% 0in /  0.0mm 0 W/m2
23:21 58.8 °F /  14.9 °C 57.7 °F /  14.3 °C 29.7in /  1006.1hPa Calm   1mph /  1.6km/h 96% 0in /  0.0mm 0 W/m2
23:26 58.8 °F /  14.9 °C 57.7 °F /  14.3 °C 29.7in /  1006.1hPa Calm     96% 0in /  0.0mm 0 W/m2
23:31 58.8 °F /  14.9 °C 57.7 °F /  14.3 °C 29.7in /  1005.8hPa Calm     96% 0in /  0.0mm 0 W/m2
23:36 58.8 °F /  14.9 °C 57.7 °F /  14.3 °C 29.7in /  1005.8hPa Calm     96% 0in /  0.0mm 0 W/m2
23:41 58.8 °F /  14.9 °C 57.7 °F /  14.3 °C 29.7in /  1005.8hPa Calm     96% 0in /  0.0mm 0 W/m2
23:46 58.8 °F /  14.9 °C 57.7 °F /  14.3 °C 29.7in /  1005.8hPa Calm     96% 0in /  0.0mm 0 W/m2
Juneau County Weather
Compliments of Weather Underground - 4 mb